createdAt,value
2023-05-13T00:01:14.724Z,10.23
2023-05-13T00:03:41.999Z,10.63
2023-05-13T00:06:09.228Z,9.48
2023-05-13T00:08:36.863Z,9.52
2023-05-13T00:11:03.938Z,8.75
2023-05-13T00:13:31.232Z,10.35
2023-05-13T00:15:58.549Z,8.57
2023-05-13T00:18:26.120Z,11.02
2023-05-13T00:20:53.229Z,8.95
2023-05-13T00:23:20.351Z,9.57
2023-05-13T00:25:47.453Z,11.52
2023-05-13T00:28:15.112Z,9.65
2023-05-13T00:30:45.776Z,11.10
2023-05-13T00:33:13.098Z,9.10
2023-05-13T00:35:40.243Z,15.52
2023-05-13T00:38:07.982Z,8.77
2023-05-13T00:40:37.960Z,11.30
2023-05-13T00:43:05.062Z,9.77
2023-05-13T00:45:32.461Z,9.75
2023-05-13T00:47:59.969Z,10.98
2023-05-13T00:50:27.524Z,8.75
2023-05-13T00:52:54.845Z,9.82
2023-05-13T00:55:22.027Z,9.52
2023-05-13T00:57:49.091Z,9.10
2023-05-13T01:00:16.392Z,11.18
2023-05-13T01:03:25.065Z,10.20
2023-05-13T01:06:00.652Z,9.38
2023-05-13T01:08:31.068Z,10.93
2023-05-13T01:11:15.947Z,9.00
2023-05-13T01:13:45.812Z,10.05
2023-05-13T01:16:13.000Z,10.88
2023-05-13T01:18:49.797Z,11.93
2023-05-13T01:21:16.936Z,11.25
2023-05-13T01:23:44.059Z,10.82
2023-05-13T01:26:11.173Z,12.15
2023-05-13T01:28:38.884Z,10.52
2023-05-13T01:31:06.517Z,12.27
2023-05-13T01:33:33.849Z,11.90
2023-05-13T01:36:02.518Z,13.55
2023-05-13T01:38:32.272Z,15.02
2023-05-13T01:40:59.913Z,14.32
2023-05-13T01:43:28.420Z,12.75
2023-05-13T01:45:55.647Z,13.73
2023-05-13T01:48:23.973Z,14.23
2023-05-13T01:50:52.562Z,14.07
2023-05-13T01:53:20.142Z,13.90
2023-05-13T01:55:48.523Z,13.63
2023-05-13T01:58:15.709Z,12.35
2023-05-13T02:00:42.874Z,14.52
2023-05-13T02:03:10.089Z,12.38
2023-05-13T02:05:37.295Z,12.80
2023-05-13T02:08:07.688Z,14.80
2023-05-13T02:10:34.775Z,12.85
2023-05-13T02:13:01.905Z,13.00
2023-05-13T02:15:29.121Z,12.15
2023-05-13T02:17:56.313Z,11.43
2023-05-13T02:20:23.729Z,13.25
2023-05-13T02:22:51.127Z,14.98
2023-05-13T02:25:18.339Z,14.75
2023-05-13T02:27:45.571Z,11.20
2023-05-13T02:30:13.011Z,14.80
2023-05-13T02:32:42.718Z,13.38
2023-05-13T02:35:10.867Z,11.60
2023-05-13T02:37:38.147Z,13.05
2023-05-13T02:40:05.654Z,13.98
2023-05-13T02:42:32.788Z,14.80
2023-05-13T02:44:59.994Z,12.98
2023-05-13T02:47:29.413Z,12.18
2023-05-13T02:50:00.890Z,14.55
2023-05-13T02:52:28.032Z,15.02
2023-05-13T02:54:55.209Z,14.10
2023-05-13T02:57:23.321Z,12.88
2023-05-13T02:59:50.523Z,14.38
2023-05-13T03:02:17.771Z,14.68
2023-05-13T03:04:45.013Z,15.98
2023-05-13T03:07:12.344Z,13.18
2023-05-13T03:09:42.016Z,13.80
2023-05-13T03:12:09.424Z,17.20
2023-05-13T03:14:37.134Z,16.00
2023-05-13T03:17:04.960Z,14.88
2023-05-13T03:19:34.515Z,16.35
2023-05-13T03:22:01.622Z,15.35
2023-05-13T03:24:28.725Z,14.88
2023-05-13T03:26:56.322Z,15.98
2023-05-13T03:29:23.796Z,14.63
2023-05-13T03:31:53.476Z,15.55
2023-05-13T03:34:20.893Z,15.35
2023-05-13T03:36:48.291Z,16.75
2023-05-13T03:39:16.235Z,18.52
2023-05-13T03:41:45.699Z,16.48
2023-05-13T03:44:12.945Z,16.80
2023-05-13T03:46:40.199Z,15.38
2023-05-13T03:49:07.580Z,18.65
2023-05-13T03:51:34.683Z,15.98
2023-05-13T03:54:02.401Z,15.90
2023-05-13T03:56:29.545Z,16.65
2023-05-13T03:58:56.727Z,18.02
2023-05-13T04:01:24.752Z,16.30
2023-05-13T04:03:52.346Z,18.00
2023-05-13T04:06:19.478Z,16.08
2023-05-13T04:08:49.229Z,17.70
2023-05-13T04:11:16.511Z,17.42
2023-05-13T04:13:45.771Z,19.73
2023-05-13T04:16:13.036Z,16.42
2023-05-13T04:18:40.239Z,18.35
2023-05-13T04:21:08.175Z,16.52
2023-05-13T04:23:35.466Z,17.80
2023-05-13T04:26:02.636Z,17.40
2023-05-13T04:28:30.380Z,17.50
2023-05-13T04:30:58.771Z,17.50
2023-05-13T04:33:26.887Z,19.73
2023-05-13T04:35:54.028Z,17.85
2023-05-13T04:38:21.095Z,18.52
2023-05-13T04:40:48.254Z,16.65
2023-05-13T04:43:21.800Z,17.92
2023-05-13T04:45:53.132Z,17.30
2023-05-13T04:48:20.412Z,21.63
2023-05-13T04:50:47.744Z,20.90
2023-05-13T04:53:16.304Z,17.90
2023-05-13T04:55:44.825Z,18.85
2023-05-13T04:58:11.972Z,16.50
2023-05-13T05:00:39.105Z,18.92
2023-05-13T05:03:06.272Z,16.13
2023-05-13T05:05:33.499Z,19.08
2023-05-13T05:08:01.162Z,17.65
2023-05-13T05:10:28.522Z,18.65
2023-05-13T05:12:59.335Z,14.45
2023-05-13T05:15:26.811Z,16.00
2023-05-13T05:17:57.047Z,19.35
2023-05-13T05:20:24.428Z,17.25
2023-05-13T05:22:53.782Z,17.77
2023-05-13T05:25:24.753Z,19.65
2023-05-13T05:27:51.808Z,20.02
2023-05-13T05:30:19.139Z,17.95
2023-05-13T05:32:51.852Z,18.20
2023-05-13T05:35:19.873Z,19.27
2023-05-13T05:37:47.047Z,19.30
2023-05-13T05:40:14.583Z,15.85
2023-05-13T05:42:41.697Z,15.85
2023-05-13T05:45:09.762Z,18.35
2023-05-13T05:47:38.163Z,19.52
2023-05-13T05:50:05.713Z,17.02
2023-05-13T05:52:32.988Z,17.20
2023-05-13T05:55:00.625Z,16.58
2023-05-13T05:57:27.771Z,17.77
2023-05-13T05:59:54.877Z,15.90
2023-05-13T06:02:22.028Z,20.13
2023-05-13T06:04:51.688Z,15.75
2023-05-13T06:07:18.964Z,20.13
2023-05-13T06:09:46.304Z,19.38
2023-05-13T06:12:13.396Z,18.63
2023-05-13T06:14:40.574Z,17.40
2023-05-13T06:17:07.746Z,18.92
2023-05-13T06:19:36.205Z,19.40
2023-05-13T06:22:04.230Z,16.17
2023-05-13T06:24:31.449Z,17.30
2023-05-13T06:26:58.636Z,17.83
2023-05-13T06:29:25.757Z,17.13
2023-05-13T06:31:53.449Z,18.17
2023-05-13T06:34:21.184Z,15.75
2023-05-13T06:36:48.378Z,17.13
2023-05-13T06:39:15.734Z,15.93
2023-05-13T06:41:44.310Z,15.98
2023-05-13T06:44:15.381Z,18.17
2023-05-13T06:46:46.557Z,16.63
2023-05-13T06:49:13.704Z,16.10
2023-05-13T06:51:40.794Z,14.77
2023-05-13T06:54:07.868Z,15.95
2023-05-13T06:56:35.062Z,18.92
2023-05-13T06:59:02.192Z,17.05
2023-05-13T07:01:29.323Z,19.10
2023-05-13T07:03:56.690Z,21.20
2023-05-13T07:06:23.906Z,18.92
2023-05-13T07:08:50.964Z,15.65
2023-05-13T07:11:18.085Z,17.02
2023-05-13T07:13:45.304Z,14.20
2023-05-13T07:16:12.430Z,16.75
2023-05-13T07:18:39.513Z,17.90
2023-05-13T07:21:06.682Z,14.23
2023-05-13T07:23:33.804Z,15.55
2023-05-13T07:26:00.922Z,14.88
2023-05-13T07:28:28.448Z,14.35
2023-05-13T07:30:55.658Z,15.32
2023-05-13T07:33:22.800Z,14.82
2023-05-13T07:35:49.928Z,15.13
2023-05-13T07:38:17.643Z,16.88
2023-05-13T07:40:44.760Z,15.32
2023-05-13T07:43:13.452Z,16.42
2023-05-13T07:45:42.173Z,14.38
2023-05-13T07:48:10.138Z,14.77
2023-05-13T07:50:37.655Z,12.75
2023-05-13T07:53:04.711Z,13.52
2023-05-13T07:55:31.865Z,16.40
2023-05-13T07:57:59.006Z,15.77
2023-05-13T08:00:26.180Z,14.57
2023-05-13T08:02:53.487Z,14.05
2023-05-13T08:05:20.859Z,15.07
2023-05-13T08:07:48.292Z,13.88
2023-05-13T08:10:15.413Z,16.00
2023-05-13T08:12:42.597Z,12.98
2023-05-13T08:15:11.899Z,14.30
2023-05-13T08:17:39.057Z,13.63
2023-05-13T08:20:06.563Z,15.18
2023-05-13T08:22:33.621Z,12.90
2023-05-13T08:25:01.179Z,14.27
2023-05-13T08:27:28.354Z,14.48
2023-05-13T08:29:55.439Z,12.90
2023-05-13T08:32:22.900Z,15.82
2023-05-13T08:34:50.118Z,13.18
2023-05-13T08:37:17.328Z,15.20
2023-05-13T08:39:44.507Z,13.25
2023-05-13T08:42:12.140Z,15.73
2023-05-13T08:44:39.976Z,15.90
2023-05-13T08:47:28.022Z,17.88
2023-05-13T08:49:56.243Z,14.40
2023-05-13T08:52:23.416Z,13.40
2023-05-13T08:54:50.520Z,17.83
2023-05-13T08:57:17.734Z,14.45
2023-05-13T08:59:45.304Z,12.52
2023-05-13T09:02:12.530Z,11.90
2023-05-13T09:04:42.178Z,11.65
2023-05-13T09:07:09.625Z,14.82
2023-05-13T09:09:36.856Z,13.18
2023-05-13T09:12:04.343Z,13.75
2023-05-13T09:14:32.617Z,13.93
2023-05-13T09:16:59.933Z,13.20
2023-05-13T09:19:27.193Z,12.52
2023-05-13T09:21:54.670Z,13.93
2023-05-13T09:24:22.532Z,13.60
2023-05-13T09:26:50.517Z,13.85
2023-05-13T09:29:17.707Z,12.05
2023-05-13T09:31:45.323Z,15.10
2023-05-13T09:34:12.988Z,17.15
2023-05-13T09:36:40.419Z,13.30
2023-05-13T09:39:07.580Z,14.43
2023-05-13T09:41:34.987Z,15.82
2023-05-13T09:44:05.350Z,12.25
2023-05-13T09:46:33.256Z,13.93
2023-05-13T09:49:01.717Z,14.52
2023-05-13T09:51:32.201Z,15.05
2023-05-13T09:54:08.526Z,13.07
2023-05-13T09:56:36.397Z,14.27
2023-05-13T09:59:04.490Z,12.38
2023-05-13T10:01:31.798Z,14.00
2023-05-13T10:03:59.586Z,14.15
2023-05-13T10:06:29.714Z,14.65
2023-05-13T10:08:58.685Z,15.57
2023-05-13T10:11:27.802Z,18.00
2023-05-13T10:13:59.898Z,12.10
2023-05-13T10:16:29.085Z,13.88
2023-05-13T10:18:57.493Z,13.05
2023-05-13T10:21:24.916Z,12.93
2023-05-13T10:23:52.124Z,13.98
2023-05-13T10:26:19.825Z,13.23
2023-05-13T10:28:48.347Z,12.45
2023-05-13T10:31:15.677Z,12.05
2023-05-13T10:33:42.955Z,11.75
2023-05-13T10:36:42.690Z,11.38
2023-05-13T10:39:16.373Z,13.63
2023-05-13T10:42:03.531Z,11.90
2023-05-13T10:44:31.031Z,13.65
2023-05-13T10:46:58.549Z,12.52
2023-05-13T10:49:33.789Z,12.43
2023-05-13T10:52:08.435Z,15.68
2023-05-13T10:54:40.453Z,12.50
2023-05-13T10:57:08.577Z,11.43
2023-05-13T10:59:37.122Z,14.77
2023-05-13T11:02:24.247Z,14.23
2023-05-13T11:05:01.288Z,13.02
2023-05-13T11:07:31.254Z,11.15
2023-05-13T11:10:00.203Z,12.10
2023-05-13T11:12:27.276Z,13.23
2023-05-13T11:14:56.496Z,12.55
2023-05-13T11:17:23.841Z,12.27
2023-05-13T11:19:51.901Z,12.02
2023-05-13T11:22:18.999Z,11.63
2023-05-13T11:24:47.032Z,12.90
2023-05-13T11:27:21.054Z,10.15
2023-05-13T11:29:58.066Z,10.45
2023-05-13T11:32:57.118Z,12.05
2023-05-13T11:35:25.836Z,9.63
2023-05-13T11:37:53.077Z,14.05
2023-05-13T11:40:39.041Z,12.65
2023-05-13T11:43:06.622Z,8.50
2023-05-13T11:45:33.933Z,10.75
2023-05-13T11:48:18.180Z,11.52
2023-05-13T11:50:45.271Z,8.93
2023-05-13T11:53:12.383Z,11.52
2023-05-13T11:55:39.495Z,12.68
2023-05-13T11:58:06.654Z,8.63
2023-05-13T12:00:34.937Z,8.88
2023-05-13T12:03:03.768Z,11.02
2023-05-13T12:05:31.195Z,9.65
2023-05-13T12:07:58.774Z,9.95
2023-05-13T12:10:26.486Z,11.13
2023-05-13T12:12:53.664Z,7.97
2023-05-13T12:15:22.143Z,9.80
2023-05-13T12:17:49.988Z,9.40
2023-05-13T12:20:18.731Z,8.15
2023-05-13T12:22:45.881Z,7.63
2023-05-13T12:25:31.176Z,8.25
2023-05-13T12:30:25.972Z,9.27
2023-05-13T12:32:53.118Z,7.38
2023-05-13T12:35:20.465Z,7.05
2023-05-13T12:37:58.943Z,8.90
2023-05-13T12:40:26.711Z,9.00
2023-05-13T12:43:00.077Z,7.95
2023-05-13T12:45:33.763Z,9.50
2023-05-13T12:48:01.166Z,9.57
2023-05-13T12:50:28.383Z,8.18
2023-05-13T12:52:57.521Z,8.00
2023-05-13T12:55:24.808Z,7.70
2023-05-13T12:58:11.320Z,8.55
2023-05-13T13:00:38.584Z,7.65
2023-05-13T13:03:05.949Z,7.82
2023-05-13T13:05:33.445Z,10.98
2023-05-13T13:08:05.233Z,10.20
2023-05-13T13:10:32.523Z,8.52
2023-05-13T13:12:59.648Z,7.47
2023-05-13T13:15:26.761Z,12.30
2023-05-13T13:17:53.911Z,9.98
2023-05-13T13:20:21.112Z,9.10
2023-05-13T13:22:48.252Z,9.57
2023-05-13T13:25:14.980Z,10.52
2023-05-13T13:27:42.119Z,8.10
2023-05-13T13:30:09.397Z,7.57
2023-05-13T13:32:36.549Z,9.45
2023-05-13T13:35:05.527Z,10.60
2023-05-13T13:37:32.794Z,7.50
2023-05-13T13:39:59.892Z,8.18
2023-05-13T13:42:36.794Z,10.38
2023-05-13T13:45:07.988Z,8.00
2023-05-13T13:47:36.021Z,9.65
2023-05-13T13:50:03.539Z,8.32
2023-05-13T13:52:30.835Z,10.52
2023-05-13T13:54:57.997Z,7.80
2023-05-13T13:57:25.170Z,9.98
2023-05-13T13:59:52.206Z,9.75
2023-05-13T14:02:19.344Z,7.97
2023-05-13T14:04:47.012Z,7.00
2023-05-13T14:07:13.770Z,8.15
2023-05-13T14:09:40.825Z,8.70
2023-05-13T14:12:08.360Z,9.18
2023-05-13T14:14:35.473Z,7.75
2023-05-13T14:17:02.609Z,7.13
2023-05-13T14:19:29.707Z,8.82
2023-05-13T14:21:56.845Z,7.97
2023-05-13T14:24:24.002Z,8.40
2023-05-13T14:26:51.168Z,8.70
2023-05-13T14:29:18.241Z,8.18
2023-05-13T14:31:45.531Z,8.80
2023-05-13T14:34:12.660Z,7.97
2023-05-13T14:36:39.760Z,7.15
2023-05-13T14:39:09.000Z,7.18
2023-05-13T14:41:36.079Z,8.65
2023-05-13T14:44:03.254Z,9.25
2023-05-13T14:46:30.572Z,8.57
2023-05-13T14:48:57.684Z,9.45
2023-05-13T14:51:24.742Z,7.43
2023-05-13T14:53:51.909Z,9.30
2023-05-13T14:56:18.948Z,9.35
2023-05-13T14:58:46.146Z,8.55
2023-05-13T15:01:13.287Z,10.20
2023-05-13T15:03:40.425Z,8.18
2023-05-13T15:06:08.932Z,7.20
2023-05-13T15:08:37.739Z,10.07
2023-05-13T15:11:05.260Z,11.15
2023-05-13T15:13:35.256Z,10.45
2023-05-13T15:16:03.452Z,11.07
2023-05-13T15:18:31.237Z,10.52
2023-05-13T15:20:58.486Z,9.05
2023-05-13T15:23:25.634Z,9.95
2023-05-13T15:25:52.690Z,11.82
2023-05-13T15:28:19.824Z,9.40
2023-05-13T15:30:46.946Z,10.40
2023-05-13T15:33:14.039Z,9.93
2023-05-13T15:35:42.379Z,8.60
2023-05-13T15:38:10.722Z,11.63
2023-05-13T15:40:38.489Z,13.25
2023-05-13T15:43:05.697Z,9.43
2023-05-13T15:45:32.807Z,10.75
2023-05-13T15:47:59.924Z,8.73
2023-05-13T15:50:27.355Z,8.02
2023-05-13T15:52:54.692Z,8.45
2023-05-13T15:55:22.374Z,9.30
2023-05-13T15:57:50.457Z,13.50
2023-05-13T16:00:18.466Z,10.07
2023-05-13T16:02:45.682Z,9.23
2023-05-13T16:05:15.181Z,10.00
2023-05-13T16:07:42.706Z,11.20
2023-05-13T16:10:09.995Z,9.60
2023-05-13T16:12:37.168Z,9.63
2023-05-13T16:15:04.607Z,12.68
2023-05-13T16:17:32.896Z,9.05
2023-05-13T16:20:00.333Z,10.30
2023-05-13T16:22:28.968Z,11.57
2023-05-13T16:24:59.676Z,11.73
2023-05-13T16:27:26.945Z,14.38
2023-05-13T16:29:54.084Z,13.00
2023-05-13T16:32:21.227Z,10.85
2023-05-13T16:34:48.440Z,10.02
2023-05-13T16:37:15.585Z,10.98
2023-05-13T16:39:42.761Z,12.75
2023-05-13T16:42:09.883Z,11.35
2023-05-13T16:44:36.972Z,9.60
2023-05-13T16:47:04.196Z,9.75
2023-05-13T16:49:31.240Z,10.40
2023-05-13T16:51:58.295Z,9.93
2023-05-13T16:54:25.471Z,10.98
2023-05-13T16:56:52.574Z,11.18
2023-05-13T16:59:21.259Z,10.63
2023-05-13T17:01:48.482Z,10.93
2023-05-13T17:04:15.901Z,9.43
2023-05-13T17:06:43.272Z,14.30
2023-05-13T17:09:10.505Z,11.95
2023-05-13T17:11:38.692Z,12.52
2023-05-13T17:14:06.488Z,10.30
2023-05-13T17:16:33.601Z,10.27
2023-05-13T17:19:00.853Z,11.40
2023-05-13T17:21:28.095Z,11.15
2023-05-13T17:23:55.208Z,13.02
2023-05-13T17:26:22.869Z,10.07
2023-05-13T17:28:49.967Z,11.55
2023-05-13T17:31:17.094Z,11.65
2023-05-13T17:33:44.459Z,8.35
2023-05-13T17:36:11.816Z,16.77
2023-05-13T17:38:39.054Z,9.20
2023-05-13T17:41:06.141Z,9.95
2023-05-13T17:43:33.302Z,9.48
2023-05-13T17:46:00.627Z,10.23
2023-05-13T17:48:27.768Z,9.57
2023-05-13T17:50:55.139Z,11.98
2023-05-13T17:53:22.317Z,8.88
2023-05-13T17:55:49.480Z,9.55
2023-05-13T17:58:17.051Z,10.10
2023-05-13T18:00:44.219Z,10.85
2023-05-13T18:03:11.415Z,10.32
2023-05-13T18:05:38.634Z,13.90
2023-05-13T18:08:05.946Z,12.18
2023-05-13T18:10:33.064Z,9.68
2023-05-13T18:13:00.323Z,10.80
2023-05-13T18:15:27.441Z,11.00
2023-05-13T18:17:54.613Z,11.65
2023-05-13T18:20:22.065Z,10.75
2023-05-13T18:22:49.413Z,10.80
2023-05-13T18:25:16.483Z,10.45
2023-05-13T18:27:43.560Z,12.63
2023-05-13T18:30:11.087Z,9.60
2023-05-13T18:32:38.185Z,10.18
2023-05-13T18:35:05.514Z,13.73
2023-05-13T18:37:32.622Z,13.07
2023-05-13T18:39:59.873Z,14.82
2023-05-13T18:42:27.021Z,12.70
2023-05-13T18:44:54.085Z,13.18
2023-05-13T18:47:21.184Z,10.50
2023-05-13T18:49:48.268Z,10.57
2023-05-13T18:52:15.375Z,11.23
2023-05-13T18:54:42.776Z,12.75
2023-05-13T18:57:09.887Z,8.98
2023-05-13T18:59:37.007Z,11.35
2023-05-13T19:02:04.244Z,9.77
2023-05-13T19:04:31.655Z,9.50
2023-05-13T19:06:59.018Z,10.48
2023-05-13T19:09:26.154Z,10.07
2023-05-13T19:11:53.271Z,10.98
2023-05-13T19:14:20.481Z,13.90
2023-05-13T19:16:47.591Z,12.32
2023-05-13T19:19:14.868Z,12.07
2023-05-13T19:21:42.156Z,12.65
2023-05-13T19:24:09.217Z,14.57
2023-05-13T19:26:36.340Z,12.27
2023-05-13T19:29:03.383Z,11.57
2023-05-13T19:31:31.662Z,10.48
2023-05-13T19:34:00.726Z,11.10
2023-05-13T19:36:28.031Z,10.32
2023-05-13T19:38:56.717Z,17.02
2023-05-13T19:41:23.864Z,13.43
2023-05-13T19:43:50.913Z,16.42
2023-05-13T19:46:18.123Z,12.80
2023-05-13T19:48:45.195Z,14.20
2023-05-13T19:51:12.273Z,18.25
2023-05-13T19:53:39.359Z,14.13
2023-05-13T19:56:06.877Z,13.65
2023-05-13T19:58:33.981Z,14.63
2023-05-13T20:01:01.209Z,11.80
2023-05-13T20:03:28.473Z,13.15
2023-05-13T20:05:55.573Z,12.93
2023-05-13T20:08:22.960Z,11.30
2023-05-13T20:10:50.217Z,12.45
2023-05-13T20:13:17.290Z,15.43
2023-05-13T20:15:45.070Z,14.63
2023-05-13T20:18:12.148Z,12.90
2023-05-13T20:20:41.140Z,14.52
2023-05-13T20:23:08.343Z,13.70
2023-05-13T20:25:35.814Z,11.80
2023-05-13T20:28:03.197Z,15.70
2023-05-13T20:30:30.419Z,13.85
2023-05-13T20:32:57.502Z,15.43
2023-05-13T20:35:24.671Z,12.95
2023-05-13T20:37:51.749Z,12.70
2023-05-13T20:40:18.968Z,11.68
2023-05-13T20:42:47.792Z,12.63
2023-05-13T20:45:14.961Z,12.27
2023-05-13T20:47:42.035Z,15.60
2023-05-13T20:50:09.342Z,14.88
2023-05-13T20:52:36.509Z,12.73
2023-05-13T20:55:03.672Z,12.82
2023-05-13T20:57:31.041Z,12.95
2023-05-13T20:59:58.139Z,12.63
2023-05-13T21:02:25.329Z,16.08
2023-05-13T21:04:52.464Z,13.63
2023-05-13T21:07:19.560Z,14.52
2023-05-13T21:09:46.660Z,18.42
2023-05-13T21:12:13.796Z,13.63
2023-05-13T21:14:41.345Z,13.68
2023-05-13T21:17:08.968Z,16.35
2023-05-13T21:19:36.018Z,14.38
2023-05-13T21:22:05.182Z,16.17
2023-05-13T21:24:32.755Z,16.48
2023-05-13T21:26:59.872Z,14.55
2023-05-13T21:29:27.067Z,17.67
2023-05-13T21:31:54.509Z,18.05
2023-05-13T21:34:21.693Z,15.07
2023-05-13T21:36:48.846Z,14.70
2023-05-13T21:39:15.998Z,15.48
2023-05-13T21:41:44.256Z,15.82
2023-05-13T21:44:11.504Z,20.67
2023-05-13T21:46:38.579Z,16.63
2023-05-13T21:49:06.073Z,18.23
2023-05-13T21:51:33.304Z,16.88
2023-05-13T21:54:00.549Z,18.02
2023-05-13T21:56:27.670Z,19.00
2023-05-13T21:58:54.808Z,20.02
2023-05-13T22:01:22.055Z,17.00
2023-05-13T22:03:49.228Z,19.02
2023-05-13T22:06:16.415Z,19.15
2023-05-13T22:08:43.534Z,18.08
2023-05-13T22:11:12.377Z,18.42
2023-05-13T22:13:39.487Z,19.75
2023-05-13T22:16:06.747Z,16.83
2023-05-13T22:18:34.206Z,17.40
2023-05-13T22:21:01.482Z,17.17
2023-05-13T22:23:28.561Z,19.20
2023-05-13T22:25:55.670Z,19.50
2023-05-13T22:28:22.801Z,18.08
2023-05-13T22:30:55.323Z,23.02
2023-05-13T22:33:22.441Z,17.58
2023-05-13T22:35:49.632Z,17.85
2023-05-13T22:38:16.767Z,20.83
2023-05-13T22:40:43.853Z,18.17
2023-05-13T22:43:10.988Z,20.77
2023-05-13T22:45:38.068Z,20.92
2023-05-13T22:48:05.308Z,20.73
2023-05-13T22:50:32.454Z,19.73
2023-05-13T22:52:59.597Z,19.75
2023-05-13T22:55:26.641Z,18.52
2023-05-13T22:57:53.803Z,20.65
2023-05-13T23:00:21.174Z,22.27
2023-05-13T23:02:48.462Z,19.60
2023-05-13T23:05:15.661Z,19.95
2023-05-13T23:07:42.768Z,20.10
2023-05-13T23:10:10.096Z,21.15
2023-05-13T23:12:37.764Z,20.05
2023-05-13T23:15:05.110Z,19.70
2023-05-13T23:17:32.252Z,20.38
2023-05-13T23:19:59.375Z,24.30
2023-05-13T23:22:26.483Z,23.63
2023-05-13T23:24:53.558Z,23.92
2023-05-13T23:27:20.786Z,21.73
2023-05-13T23:29:47.956Z,23.30
2023-05-13T23:32:15.069Z,18.25
2023-05-13T23:34:42.157Z,23.40
2023-05-13T23:37:09.242Z,21.88
2023-05-13T23:39:36.405Z,22.85
2023-05-13T23:42:03.556Z,22.48
2023-05-13T23:44:30.706Z,21.65
2023-05-13T23:46:58.626Z,23.80
2023-05-13T23:49:25.748Z,18.95
2023-05-13T23:51:52.789Z,20.65
2023-05-13T23:54:19.859Z,21.60
2023-05-13T23:56:46.986Z,23.67
2023-05-13T23:59:14.061Z,21.55
